Montrose, CO

7:39 PM MDT on May 22, 2015 (GMT -0600)
Spring Creek | | Change Station
CLOSE
Current Station
Personal Weather Station
Location: Montrose, CO
Elevation: 6020 ft
Nearby Weather Stations

Elev 6020 ft 38.44 °N, 107.90 °W | Updated 4 minutes ago

Overcast
Overcast
49.6 °F
Feels Like 47 °F
N
6.0
Wind Variable Wind from SSW
Gusts 11.0 mph

Today
High -- | Low -- °F
--% Chance of Precip.
Yesterday
High -- | Low -- °F
Precip. -- in
5:54 AM 8:21 PM
Waxing Crescent, 25% visible
Pressure 29.85 in
Visibility 10.0 miles
Clouds Few 7000 ft
Overcast 9000 ft
Windchill 47 °F
Dew Point 40 °F
Humidity 70%
Rainfall 0.00 in
Snow Depth Not available.
UV 0 out of 12
Pollen 8.30 out of 12
Air Quality Not available.
Flu Activity Sporadic
METAR KMTJ 230053Z AUTO 18018G24KT 10SM FEW070 OVC090 14/02 A2998 RMK AO2 PK WND 19035/0021 LTG DSNT N AND NW SLP106 T01390017

More Conditions Fewer Conditions

Pressure 29.85 in
Visibility 10.0 miles
Clouds Few 7000 ft
Overcast 9000 ft
Windchill 47 °F
Dew Point 40 °F
Humidity 70%
Rainfall 0.00 in
Snow Depth Not available.
UV 0 out of 12
Pollen 8.30 out of 12
Air Quality Not available.
Flu Activity Sporadic
METAR KMTJ 230053Z AUTO 18018G24KT 10SM FEW070 OVC090 14/02 A2998 RMK AO2 PK WND 19035/0021 LTG DSNT N AND NW SLP106 T01390017

More Conditions Fewer Conditions

Nowcast | as of 7:25 PM MDT on May 22, 2015

At 720 PM MDT...Doppler radar indicated a line of showers and thunderstorms extending from just east of Moab to Grand Junction then curving southeast to Delta and Montrose. This line will move north at 40 mph. Through 815 PM MDT...the storms in this line will produce frequent lightning...occasional heavy rain showers and a few storms will produce hail up to one half inch diameter. Locations impacted include... Grand Junction...Castle Valley... Fruita...Delta... Palisade...Cedaredge...Parachute...Hotchkiss... Collbran...De Beque...Battlement Mesa...Whitewater...The Redlands... Cameo and Grand Mesa.

×

10-Day Weather Forecast

Almanac

Astronomy

May. 22, 2015 Rise Set
Actual Time
Civil Twilight
Nautical Twilight
Astronomical Twilight
Moon
Length of Visible Light
Length of Day
Tomorrow will be .
, % of the Moon is Illuminated

Today's Extremes

State Highs State Lows

Community

WunderPhotos

Upload Photos

1,823,357 photos uploaded!

WunderBlogs® & News

Nearby

Air Quality

  Air Quality AQ Index Pollutant
Not available.

Snow Depth

Station Depth Elevation

Earthquake Activity

City Distance Mag. Time & Date
Minimum magnitude displayed is 2.5.

Coastal Water Temperatures

Place Temperature

Stations

Nearby Weather Stations

Station Location Temp. Windchill Dew Point Humidity Wind Precip. Elev Updated Type